Terminal Aerodrome Forecast
Issued by NWS

Home | Current Version | Previous Version | Text Only | Print | Product List | Glossary On
Versions: 1 2 3 4 5 6 7 8 9 10 11 12 13 14 15 16
000
FTUS43 KBIS 260500
TAFJMS
TAF
KJMS 260537Z 2606/2706 03020KT 2SM -SN BR SCT015 SCT025 OVC035
      TEMPO 2606/2610 4SM -SN BR BKN015 OVC025
     FM261000 35014G20KT 5SM -SN BKN012 OVC022
     FM261500 35010KT P6SM SCT015 BKN070
     FM262100 36005KT P6SM SCT150=

USA.gov is the U.S. government's official web portal to all federal, state and local government web resources and services.